createdAt,value
2019-01-30T00:00:46.394Z,18.15
2019-01-30T00:01:46.395Z,18.12
2019-01-30T00:02:46.314Z,18.12
2019-01-30T00:03:46.358Z,18.11
2019-01-30T00:04:46.210Z,18.12
2019-01-30T00:05:46.217Z,18.09
2019-01-30T00:06:45.933Z,18.08
2019-01-30T00:07:46.112Z,18.08
2019-01-30T00:08:46.376Z,18.08
2019-01-30T00:09:45.958Z,18.07
2019-01-30T00:10:46.198Z,18.07
2019-01-30T00:11:46.483Z,18.04
2019-01-30T00:12:46.102Z,18.05
2019-01-30T00:13:46.380Z,18.02
2019-01-30T00:14:45.978Z,18.02
2019-01-30T00:15:57.063Z,18.05
2019-01-30T00:16:46.095Z,18.02
2019-01-30T00:17:46.328Z,18.04
2019-01-30T00:18:46.060Z,18.02
2019-01-30T00:19:46.333Z,18.02
2019-01-30T00:20:46.107Z,18
2019-01-30T00:21:46.058Z,18
2019-01-30T00:22:46.038Z,18
2019-01-30T00:23:46.126Z,18.01
2019-01-30T00:24:46.074Z,17.98
2019-01-30T00:25:46.341Z,17.98
2019-01-30T00:26:46.062Z,17.97
2019-01-30T00:27:46.291Z,17.95
2019-01-30T00:28:46.300Z,17.97
2019-01-30T00:29:46.015Z,17.97
2019-01-30T00:30:46.123Z,17.98
2019-01-30T00:31:46.288Z,17.97
2019-01-30T00:32:46.041Z,17.95
2019-01-30T00:33:46.170Z,17.95
2019-01-30T00:34:46.158Z,17.94
2019-01-30T00:35:46.968Z,17.94
2019-01-30T00:36:46.027Z,17.91
2019-01-30T00:37:46.464Z,17.94
2019-01-30T00:38:47.797Z,17.93
2019-01-30T00:39:46.379Z,17.89
2019-01-30T00:40:46.646Z,17.89
2019-01-30T00:41:46.281Z,17.91
2019-01-30T00:42:46.083Z,17.88
2019-01-30T00:43:46.037Z,17.89
2019-01-30T00:44:46.196Z,17.89
2019-01-30T00:45:46.707Z,17.87
2019-01-30T00:46:46.530Z,17.89
2019-01-30T00:47:48.048Z,17.88
2019-01-30T00:48:46.523Z,17.88
2019-01-30T00:49:46.349Z,17.85
2019-01-30T00:50:48.029Z,17.85
2019-01-30T00:51:46.116Z,17.84
2019-01-30T00:52:46.098Z,17.85
2019-01-30T00:53:46.356Z,17.84
2019-01-30T00:54:46.261Z,17.82
2019-01-30T00:55:46.092Z,17.82
2019-01-30T00:56:46.278Z,17.85
2019-01-30T00:57:46.205Z,17.8
2019-01-30T00:58:46.291Z,17.81
2019-01-30T00:59:46.716Z,17.81
2019-01-30T01:00:46.241Z,17.81
2019-01-30T01:01:46.135Z,17.82
2019-01-30T01:02:46.169Z,17.8
2019-01-30T01:03:46.012Z,17.81
2019-01-30T01:04:46.441Z,17.78
2019-01-30T01:05:45.989Z,17.78
2019-01-30T01:06:46.137Z,17.78
2019-01-30T01:07:46.281Z,17.77
2019-01-30T01:08:47.895Z,17.77
2019-01-30T01:09:46.058Z,17.76
2019-01-30T01:10:46.138Z,17.76
2019-01-30T01:11:46.309Z,17.76
2019-01-30T01:12:46.499Z,17.77
2019-01-30T01:13:46.293Z,17.76
2019-01-30T01:14:46.221Z,17.73
2019-01-30T01:15:46.179Z,17.76
2019-01-30T01:16:46.443Z,17.73
2019-01-30T01:17:46.006Z,17.76
2019-01-30T01:18:46.206Z,17.73
2019-01-30T01:19:46.152Z,17.71
2019-01-30T01:20:46.373Z,17.68
2019-01-30T01:21:46.129Z,17.73
2019-01-30T01:22:45.979Z,17.71
2019-01-30T01:23:46.190Z,17.7
2019-01-30T01:24:46.486Z,17.71
2019-01-30T01:25:46.298Z,17.7
2019-01-30T01:26:46.409Z,17.71
2019-01-30T01:27:46.232Z,17.68
2019-01-30T01:28:46.051Z,17.67
2019-01-30T01:29:46.425Z,17.7
2019-01-30T01:30:46.845Z,17.7
2019-01-30T01:31:46.446Z,17.7
2019-01-30T01:32:47.139Z,17.68
2019-01-30T01:33:46.594Z,17.66
2019-01-30T01:34:46.066Z,17.67
2019-01-30T01:35:47.025Z,17.67
2019-01-30T01:36:46.269Z,17.64
2019-01-30T01:37:46.094Z,17.64
2019-01-30T01:38:46.474Z,17.64
2019-01-30T01:39:46.907Z,17.66
2019-01-30T01:40:46.139Z,17.63
2019-01-30T01:41:46.133Z,17.63
2019-01-30T01:42:47.874Z,17.64
2019-01-30T01:43:46.254Z,17.64
2019-01-30T01:44:46.849Z,17.61
2019-01-30T01:45:46.248Z,17.63
2019-01-30T01:46:46.234Z,17.61
2019-01-30T01:47:46.765Z,17.61
2019-01-30T01:48:46.568Z,17.61
2019-01-30T01:49:46.743Z,17.6
2019-01-30T01:50:45.998Z,17.6
2019-01-30T01:51:46.243Z,17.57
2019-01-30T01:52:45.890Z,17.6
2019-01-30T01:53:46.126Z,17.6
2019-01-30T01:54:46.043Z,17.57
2019-01-30T01:55:45.973Z,17.59
2019-01-30T01:56:46.008Z,17.59
2019-01-30T01:57:46.430Z,17.56
2019-01-30T01:58:46.044Z,17.57
2019-01-30T01:59:46.483Z,17.59
2019-01-30T02:00:46.055Z,17.59
2019-01-30T02:01:46.000Z,17.56
2019-01-30T02:02:45.953Z,17.56
2019-01-30T02:03:46.229Z,17.54
2019-01-30T02:04:46.029Z,17.54
2019-01-30T02:05:46.068Z,17.56
2019-01-30T02:06:46.096Z,17.54
2019-01-30T02:07:45.896Z,17.52
2019-01-30T02:08:46.125Z,17.53
2019-01-30T02:09:46.110Z,17.52
2019-01-30T02:10:45.873Z,17.53
2019-01-30T02:11:46.097Z,17.52
2019-01-30T02:12:46.221Z,17.53
2019-01-30T02:13:46.754Z,17.52
2019-01-30T02:14:45.796Z,17.52
2019-01-30T02:15:46.341Z,17.5
2019-01-30T02:16:46.305Z,17.5
2019-01-30T02:17:46.187Z,17.5
2019-01-30T02:18:46.687Z,17.5
2019-01-30T02:19:46.785Z,17.48
2019-01-30T02:20:46.481Z,17.5
2019-01-30T02:21:46.300Z,17.48
2019-01-30T02:22:46.132Z,17.49
2019-01-30T02:23:45.867Z,17.48
2019-01-30T02:24:46.002Z,17.48
2019-01-30T02:25:46.150Z,17.46
2019-01-30T02:26:46.118Z,17.46
2019-01-30T02:27:46.207Z,17.45
2019-01-30T02:28:46.637Z,17.48
2019-01-30T02:29:46.445Z,17.46
2019-01-30T02:30:48.184Z,17.46
2019-01-30T02:31:48.085Z,17.46
2019-01-30T02:32:45.833Z,17.45
2019-01-30T02:33:45.942Z,17.48
2019-01-30T02:34:46.249Z,17.45
2019-01-30T02:35:46.349Z,17.45
2019-01-30T02:36:46.055Z,17.43
2019-01-30T02:37:45.824Z,17.42
2019-01-30T02:38:46.012Z,17.4
2019-01-30T02:39:46.265Z,17.43
2019-01-30T02:40:46.077Z,17.4
2019-01-30T02:41:46.279Z,17.39
2019-01-30T02:42:45.906Z,17.4
2019-01-30T02:43:45.999Z,17.4
2019-01-30T02:44:46.251Z,17.42
2019-01-30T02:45:46.488Z,17.42
2019-01-30T02:46:45.948Z,17.39
2019-01-30T02:47:46.370Z,17.4
2019-01-30T02:48:46.216Z,17.39
2019-01-30T02:49:46.069Z,17.39
2019-01-30T02:50:46.445Z,17.39
2019-01-30T02:51:45.953Z,17.38
2019-01-30T02:52:46.312Z,17.36
2019-01-30T02:53:46.172Z,17.38
2019-01-30T02:54:46.119Z,17.38
2019-01-30T02:55:47.058Z,17.39
2019-01-30T02:56:46.432Z,17.35
2019-01-30T02:57:46.237Z,17.38
2019-01-30T02:58:46.198Z,17.36
2019-01-30T02:59:46.281Z,17.35
2019-01-30T03:00:46.277Z,17.36
2019-01-30T03:01:46.286Z,17.36
2019-01-30T03:02:45.899Z,17.36
2019-01-30T03:03:45.910Z,17.35
2019-01-30T03:04:46.359Z,17.38
2019-01-30T03:05:46.204Z,17.35
2019-01-30T03:06:46.068Z,17.33
2019-01-30T03:07:46.406Z,17.33
2019-01-30T03:08:46.208Z,17.33
2019-01-30T03:09:46.105Z,17.35
2019-01-30T03:10:46.262Z,17.33
2019-01-30T03:11:46.358Z,17.32
2019-01-30T03:12:46.350Z,17.32
2019-01-30T03:13:46.453Z,17.32
2019-01-30T03:14:45.939Z,17.31
2019-01-30T03:15:46.205Z,17.29
2019-01-30T03:16:46.337Z,17.31
2019-01-30T03:17:45.985Z,17.29
2019-01-30T03:18:46.164Z,17.29
2019-01-30T03:19:45.973Z,17.31
2019-01-30T03:20:45.990Z,17.26
2019-01-30T03:21:46.481Z,17.29
2019-01-30T03:22:45.980Z,17.28
2019-01-30T03:23:46.528Z,17.26
2019-01-30T03:24:46.150Z,17.29
2019-01-30T03:25:46.240Z,17.26
2019-01-30T03:26:46.693Z,17.29
2019-01-30T03:27:46.619Z,17.28
2019-01-30T03:28:46.181Z,17.28
2019-01-30T03:29:46.069Z,17.26
2019-01-30T03:30:46.080Z,17.26
2019-01-30T03:31:46.088Z,17.25
2019-01-30T03:32:46.476Z,17.23
2019-01-30T03:33:46.206Z,17.25
2019-01-30T03:34:46.174Z,17.23
2019-01-30T03:35:46.121Z,17.22
2019-01-30T03:36:45.914Z,17.25
2019-01-30T03:37:46.302Z,17.23
2019-01-30T03:38:46.133Z,17.23
2019-01-30T03:39:45.983Z,17.25
2019-01-30T03:40:46.087Z,17.22
2019-01-30T03:41:46.079Z,17.23
2019-01-30T03:42:45.992Z,17.21
2019-01-30T03:43:46.508Z,17.23
2019-01-30T03:44:46.287Z,17.23
2019-01-30T03:45:46.019Z,17.22
2019-01-30T03:46:46.155Z,17.23
2019-01-30T03:47:45.825Z,17.22
2019-01-30T03:48:46.167Z,17.21
2019-01-30T03:49:46.082Z,17.23
2019-01-30T03:50:46.401Z,17.22
2019-01-30T03:51:46.049Z,17.22
2019-01-30T03:52:45.906Z,17.19
2019-01-30T03:53:46.181Z,17.21
2019-01-30T03:54:46.068Z,17.22
2019-01-30T03:55:46.445Z,17.19
2019-01-30T03:56:46.148Z,17.18
2019-01-30T03:57:46.068Z,17.19
2019-01-30T03:58:47.799Z,17.18
2019-01-30T03:59:46.327Z,17.18
2019-01-30T04:00:46.676Z,17.19
2019-01-30T04:01:47.813Z,17.21
2019-01-30T04:02:46.521Z,17.19
2019-01-30T04:03:47.983Z,17.15
2019-01-30T04:04:47.037Z,17.16
2019-01-30T04:05:46.052Z,17.16
2019-01-30T04:06:46.529Z,17.16
2019-01-30T04:07:46.343Z,17.16
2019-01-30T04:08:46.481Z,17.16
2019-01-30T04:09:47.756Z,17.15
2019-01-30T04:10:46.744Z,17.12
2019-01-30T04:11:46.360Z,17.15
2019-01-30T04:12:46.499Z,17.12
2019-01-30T04:13:46.268Z,17.14
2019-01-30T04:14:46.121Z,17.15
2019-01-30T04:15:46.271Z,17.14
2019-01-30T04:16:46.480Z,17.14
2019-01-30T04:17:46.620Z,17.14
2019-01-30T04:18:46.207Z,17.12
2019-01-30T04:19:46.056Z,17.12
2019-01-30T04:20:46.184Z,17.12
2019-01-30T04:21:45.869Z,17.14
2019-01-30T04:22:46.355Z,17.12
2019-01-30T04:23:46.042Z,17.11
2019-01-30T04:24:46.372Z,17.12
2019-01-30T04:25:46.353Z,17.12
2019-01-30T04:26:46.575Z,17.11
2019-01-30T04:27:46.743Z,17.11
2019-01-30T04:28:46.476Z,17.09
2019-01-30T04:29:46.298Z,17.12
2019-01-30T04:30:46.143Z,17.11
2019-01-30T04:31:46.194Z,17.09
2019-01-30T04:32:46.310Z,17.09
2019-01-30T04:33:47.041Z,17.11
2019-01-30T04:34:46.108Z,17.09
2019-01-30T04:35:45.911Z,17.09
2019-01-30T04:36:46.069Z,17.09
2019-01-30T04:37:46.183Z,17.08
2019-01-30T04:38:46.654Z,17.08
2019-01-30T04:39:46.243Z,17.08
2019-01-30T04:40:46.238Z,17.08
2019-01-30T04:41:45.921Z,17.06
2019-01-30T04:42:46.488Z,17.08
2019-01-30T04:43:46.287Z,17.08
2019-01-30T04:44:45.997Z,17.06
2019-01-30T04:45:46.285Z,17.08
2019-01-30T04:46:46.364Z,17.08
2019-01-30T04:47:45.960Z,17.06
2019-01-30T04:48:46.287Z,17.06
2019-01-30T04:49:46.219Z,17.08
2019-01-30T04:50:46.457Z,17.09
2019-01-30T04:51:46.200Z,17.08
2019-01-30T04:52:45.859Z,17.11
2019-01-30T04:53:46.249Z,17.09
2019-01-30T04:54:46.221Z,17.12
2019-01-30T04:55:45.976Z,17.14
2019-01-30T04:56:45.998Z,17.14
2019-01-30T04:57:46.434Z,17.11
2019-01-30T04:58:45.855Z,17.12
2019-01-30T04:59:46.698Z,17.14
2019-01-30T05:00:46.218Z,17.18
2019-01-30T05:01:50.368Z,17.16
2019-01-30T05:02:46.217Z,17.18
2019-01-30T05:03:46.309Z,17.18
2019-01-30T05:04:47.403Z,17.23
2019-01-30T05:05:46.360Z,17.23
2019-01-30T05:06:46.359Z,17.26
2019-01-30T05:07:46.468Z,17.26
2019-01-30T05:08:46.125Z,17.28
2019-01-30T05:09:46.214Z,17.32
2019-01-30T05:10:46.027Z,17.33
2019-01-30T05:11:45.883Z,17.35
2019-01-30T05:12:46.702Z,17.33
2019-01-30T05:13:45.987Z,17.38
2019-01-30T05:14:45.829Z,17.38
2019-01-30T05:15:45.911Z,17.4
2019-01-30T05:16:46.202Z,17.42
2019-01-30T05:17:45.874Z,17.46
2019-01-30T05:18:45.773Z,17.49
2019-01-30T05:19:46.022Z,17.48
2019-01-30T05:20:45.899Z,17.5
2019-01-30T05:21:46.371Z,17.5
2019-01-30T05:22:45.807Z,17.56
2019-01-30T05:23:45.936Z,17.54
2019-01-30T05:24:46.113Z,17.54
2019-01-30T05:25:46.106Z,17.56
2019-01-30T05:26:45.770Z,17.59
2019-01-30T05:27:46.042Z,17.59
2019-01-30T05:28:45.844Z,17.61
2019-01-30T05:29:45.984Z,17.64
2019-01-30T05:30:45.831Z,17.64
2019-01-30T05:31:45.903Z,17.66
2019-01-30T05:32:46.010Z,17.67
2019-01-30T05:33:47.957Z,17.68
2019-01-30T05:34:45.864Z,17.71
2019-01-30T05:35:46.346Z,17.71
2019-01-30T05:36:46.244Z,17.73
2019-01-30T05:37:46.102Z,17.77
2019-01-30T05:38:45.854Z,17.77
2019-01-30T05:39:46.774Z,17.78
2019-01-30T05:40:46.586Z,17.8
2019-01-30T05:41:46.235Z,17.8
2019-01-30T05:42:46.019Z,17.81
2019-01-30T05:43:46.110Z,17.81
2019-01-30T05:44:46.049Z,17.84
2019-01-30T05:45:46.028Z,17.85
2019-01-30T05:46:45.878Z,17.87
2019-01-30T05:47:46.332Z,17.88
2019-01-30T05:48:45.741Z,17.91
2019-01-30T05:49:47.845Z,17.89
2019-01-30T05:50:46.356Z,17.91
2019-01-30T05:51:45.806Z,17.93
2019-01-30T05:52:46.375Z,17.94
2019-01-30T05:53:46.535Z,17.94
2019-01-30T05:54:46.086Z,17.94
2019-01-30T05:55:46.057Z,17.97
2019-01-30T05:56:46.402Z,17.98
2019-01-30T05:57:47.516Z,17.97
2019-01-30T05:58:46.042Z,18.01
2019-01-30T05:59:46.103Z,18
2019-01-30T06:00:46.099Z,18.02
2019-01-30T06:01:46.318Z,18.01
2019-01-30T06:02:45.736Z,18.02
2019-01-30T06:03:46.008Z,18.02
2019-01-30T06:04:46.029Z,18.04
2019-01-30T06:05:46.032Z,18.05
2019-01-30T06:06:45.927Z,18.07
2019-01-30T06:07:46.184Z,18.07
2019-01-30T06:08:46.167Z,18.07
2019-01-30T06:09:46.104Z,18.07
2019-01-30T06:10:45.996Z,18.08
2019-01-30T06:11:45.920Z,18.09
2019-01-30T06:12:46.341Z,18.08
2019-01-30T06:13:45.777Z,18.11
2019-01-30T06:14:45.946Z,18.09
2019-01-30T06:15:46.251Z,18.13
2019-01-30T06:16:46.050Z,18.11
2019-01-30T06:17:45.929Z,18.12
2019-01-30T06:18:46.343Z,18.13
2019-01-30T06:19:47.374Z,18.13
2019-01-30T06:20:46.147Z,18.13
2019-01-30T06:21:46.263Z,18.12
2019-01-30T06:22:45.902Z,18.13
2019-01-30T06:23:45.988Z,18.15
2019-01-30T06:24:46.392Z,18.16
2019-01-30T06:25:45.952Z,18.13
2019-01-30T06:26:45.961Z,18.16
2019-01-30T06:27:46.111Z,18.15
2019-01-30T06:28:45.926Z,18.18
2019-01-30T06:29:46.630Z,18.16
2019-01-30T06:30:45.867Z,18.15
2019-01-30T06:31:46.008Z,18.18
2019-01-30T06:32:46.247Z,18.19
2019-01-30T06:33:46.096Z,18.21
2019-01-30T06:34:45.810Z,18.22
2019-01-30T06:35:46.218Z,18.22
2019-01-30T06:36:46.271Z,18.25
2019-01-30T06:37:46.169Z,18.26
2019-01-30T06:38:46.197Z,18.26
2019-01-30T06:39:46.179Z,18.26
2019-01-30T06:40:46.067Z,18.28
2019-01-30T06:41:47.947Z,18.29
2019-01-30T06:42:46.110Z,18.3
2019-01-30T06:43:46.510Z,18.33
2019-01-30T06:44:45.860Z,18.36
2019-01-30T06:45:47.942Z,18.36
2019-01-30T06:46:47.451Z,18.35
2019-01-30T06:47:46.033Z,18.36
2019-01-30T06:48:46.319Z,18.39
2019-01-30T06:49:46.983Z,18.4
2019-01-30T06:50:45.884Z,18.4
2019-01-30T06:51:46.277Z,18.41
2019-01-30T06:52:46.080Z,18.43
2019-01-30T06:53:45.862Z,18.41
2019-01-30T06:54:46.067Z,18.41
2019-01-30T06:55:45.781Z,18.44
2019-01-30T06:56:45.748Z,18.43
2019-01-30T06:57:46.182Z,18.44
2019-01-30T06:58:46.074Z,18.46
2019-01-30T06:59:45.782Z,18.44
2019-01-30T07:00:45.802Z,18.44
2019-01-30T07:01:46.065Z,18.46
2019-01-30T07:02:46.077Z,18.47
2019-01-30T07:03:45.772Z,18.47
2019-01-30T07:04:46.046Z,18.47
2019-01-30T07:05:45.918Z,18.49
2019-01-30T07:06:46.280Z,18.47
2019-01-30T07:07:46.027Z,18.5
2019-01-30T07:08:45.918Z,18.51
2019-01-30T07:09:46.109Z,18.51
2019-01-30T07:10:45.843Z,18.51
2019-01-30T07:11:45.836Z,18.49
2019-01-30T07:12:46.920Z,18.5
2019-01-30T07:13:45.780Z,18.51
2019-01-30T07:14:47.058Z,18.51
2019-01-30T07:15:46.199Z,18.51
2019-01-30T07:16:46.023Z,18.53
2019-01-30T07:17:46.238Z,18.51
2019-01-30T07:18:45.718Z,18.54
2019-01-30T07:19:46.462Z,18.54
2019-01-30T07:20:45.887Z,18.56
2019-01-30T07:21:46.189Z,18.56
2019-01-30T07:22:46.088Z,18.54
2019-01-30T07:23:45.982Z,18.56
2019-01-30T07:24:46.191Z,18.6
2019-01-30T07:25:45.976Z,18.6
2019-01-30T07:26:46.020Z,18.62
2019-01-30T07:27:45.923Z,18.62
2019-01-30T07:28:45.959Z,18.66
2019-01-30T07:29:46.216Z,18.64
2019-01-30T07:30:45.829Z,18.64
2019-01-30T07:31:45.995Z,18.66
2019-01-30T07:32:46.074Z,18.68
2019-01-30T07:33:46.176Z,18.71
2019-01-30T07:34:46.399Z,18.71
2019-01-30T07:35:46.390Z,18.73
2019-01-30T07:36:45.962Z,18.73
2019-01-30T07:37:48.028Z,18.75
2019-01-30T07:38:46.095Z,18.75
2019-01-30T07:39:46.317Z,18.77
2019-01-30T07:40:47.032Z,18.78
2019-01-30T07:41:46.345Z,18.78
2019-01-30T07:42:46.144Z,18.81
2019-01-30T07:43:46.110Z,18.8
2019-01-30T07:44:51.506Z,18.81
2019-01-30T07:45:47.900Z,18.84
2019-01-30T07:46:46.071Z,18.84
2019-01-30T07:47:45.879Z,18.87
2019-01-30T07:48:46.279Z,18.87
2019-01-30T07:49:45.650Z,18.87
2019-01-30T07:50:46.241Z,18.88
2019-01-30T07:51:46.789Z,18.88
2019-01-30T07:52:45.845Z,18.9
2019-01-30T07:53:45.928Z,18.92
2019-01-30T07:54:46.004Z,18.94
2019-01-30T07:55:46.014Z,18.97
2019-01-30T07:56:46.181Z,18.95
2019-01-30T07:57:46.043Z,18.95
2019-01-30T07:58:45.917Z,18.98
2019-01-30T07:59:45.963Z,18.98
2019-01-30T08:00:46.023Z,18.97
2019-01-30T08:01:47.733Z,18.99
2019-01-30T08:02:53.995Z,18.98
2019-01-30T08:03:46.385Z,19.01
2019-01-30T08:04:45.817Z,19.03
2019-01-30T08:05:47.752Z,19.03
2019-01-30T08:06:47.845Z,19.06
2019-01-30T08:07:46.196Z,19.06
2019-01-30T08:08:46.309Z,19.09
2019-01-30T08:09:46.303Z,19.11
2019-01-30T08:10:46.113Z,19.11
2019-01-30T08:11:46.121Z,19.09
2019-01-30T08:12:45.820Z,19.11
2019-01-30T08:13:46.155Z,19.12
2019-01-30T08:14:46.381Z,19.15
2019-01-30T08:15:45.945Z,19.13
2019-01-30T08:16:48.341Z,19.13
2019-01-30T08:17:46.129Z,19.13
2019-01-30T08:18:46.209Z,19.18
2019-01-30T08:19:46.105Z,19.18
2019-01-30T08:20:46.421Z,19.19
2019-01-30T08:21:46.118Z,19.19
2019-01-30T08:22:48.432Z,19.2
2019-01-30T08:23:46.514Z,19.22
2019-01-30T08:24:46.533Z,19.2
2019-01-30T08:25:46.630Z,19.22
2019-01-30T08:26:47.847Z,19.2
2019-01-30T08:27:47.858Z,19.23
2019-01-30T08:28:47.464Z,19.25
2019-01-30T08:29:47.070Z,19.25
2019-01-30T08:30:46.150Z,19.25
2019-01-30T08:31:47.269Z,19.26
2019-01-30T08:32:47.061Z,19.27
2019-01-30T08:33:45.912Z,19.29
2019-01-30T08:34:45.736Z,19.32
2019-01-30T08:35:46.101Z,19.3
2019-01-30T08:36:45.836Z,19.32
2019-01-30T08:37:46.326Z,19.3
2019-01-30T08:38:45.904Z,19.32
2019-01-30T08:39:45.839Z,19.33
2019-01-30T08:40:45.795Z,19.35
2019-01-30T08:41:45.952Z,19.33
2019-01-30T08:42:45.858Z,19.36
2019-01-30T08:43:45.853Z,19.33
2019-01-30T08:44:47.652Z,19.33
2019-01-30T08:45:45.836Z,19.37
2019-01-30T08:46:46.064Z,19.36
2019-01-30T08:47:46.265Z,19.36
2019-01-30T08:48:45.755Z,19.37
2019-01-30T08:49:45.872Z,19.37
2019-01-30T08:50:45.671Z,19.36
2019-01-30T08:51:45.862Z,19.39
2019-01-30T08:52:46.885Z,19.37
2019-01-30T08:53:45.784Z,19.36
2019-01-30T08:54:46.756Z,19.35
2019-01-30T08:55:46.163Z,19.37
2019-01-30T08:56:53.568Z,19.36
2019-01-30T08:57:45.869Z,19.36
2019-01-30T08:58:46.133Z,19.36
2019-01-30T08:59:45.712Z,19.39
2019-01-30T09:00:46.438Z,19.36
2019-01-30T09:01:46.208Z,19.35
2019-01-30T09:02:45.800Z,19.36
2019-01-30T09:03:46.491Z,19.37
2019-01-30T09:04:45.920Z,19.42
2019-01-30T09:05:45.905Z,19.39
2019-01-30T09:06:46.024Z,19.37
2019-01-30T09:07:46.115Z,19.39
2019-01-30T09:08:46.354Z,19.42
2019-01-30T09:09:45.931Z,19.42
2019-01-30T09:10:45.816Z,19.43
2019-01-30T09:11:46.066Z,19.45
2019-01-30T09:12:46.446Z,19.46
2019-01-30T09:13:45.856Z,19.42
2019-01-30T09:14:45.857Z,19.42
2019-01-30T09:15:45.772Z,19.43
2019-01-30T09:16:45.916Z,19.45
2019-01-30T09:17:47.533Z,19.47
2019-01-30T09:18:45.690Z,19.46
2019-01-30T09:19:46.124Z,19.49
2019-01-30T09:20:45.913Z,19.47
2019-01-30T09:21:46.139Z,19.46
2019-01-30T09:22:46.049Z,19.46
2019-01-30T09:23:45.809Z,19.47
2019-01-30T09:24:46.303Z,19.5
2019-01-30T09:25:46.270Z,19.47
2019-01-30T09:26:45.949Z,19.46
2019-01-30T09:27:46.174Z,19.46
2019-01-30T09:28:45.850Z,19.47
2019-01-30T09:29:45.764Z,19.46
2019-01-30T09:30:45.786Z,19.49
2019-01-30T09:31:46.504Z,19.46
2019-01-30T09:32:45.919Z,19.47
2019-01-30T09:33:46.120Z,19.46
2019-01-30T09:34:45.972Z,19.46
2019-01-30T09:35:46.178Z,19.45
2019-01-30T09:36:46.191Z,19.46
2019-01-30T09:37:46.234Z,19.49
2019-01-30T09:38:46.882Z,19.47
2019-01-30T09:39:51.349Z,19.47
2019-01-30T09:40:46.457Z,19.46
2019-01-30T09:41:46.160Z,19.49
2019-01-30T09:42:46.164Z,19.47
2019-01-30T09:43:46.163Z,19.47
2019-01-30T09:44:46.230Z,19.49
2019-01-30T09:45:46.894Z,19.47
2019-01-30T09:46:46.196Z,19.47
2019-01-30T09:47:46.075Z,19.49
2019-01-30T09:48:45.889Z,19.49
2019-01-30T09:49:46.108Z,19.47
2019-01-30T09:50:46.246Z,19.47
2019-01-30T09:51:46.226Z,19.49
2019-01-30T09:52:45.822Z,19.45
2019-01-30T09:53:46.159Z,19.49
2019-01-30T09:54:46.401Z,19.49
2019-01-30T09:55:45.691Z,19.47
2019-01-30T09:56:46.243Z,19.49
2019-01-30T09:57:45.948Z,19.47
2019-01-30T09:58:46.084Z,19.5
2019-01-30T09:59:46.090Z,19.49
2019-01-30T10:00:45.870Z,19.47
2019-01-30T10:01:45.878Z,19.46
2019-01-30T10:02:46.222Z,19.47
2019-01-30T10:03:46.116Z,19.45
2019-01-30T10:04:46.152Z,19.47
2019-01-30T10:05:45.873Z,19.47
2019-01-30T10:06:45.758Z,19.46
2019-01-30T10:07:45.645Z,19.47
2019-01-30T10:08:46.130Z,19.47
2019-01-30T10:09:45.871Z,19.46
2019-01-30T10:10:45.936Z,19.47
2019-01-30T10:11:46.035Z,19.46
2019-01-30T10:12:45.861Z,19.47
2019-01-30T10:13:45.841Z,19.49
2019-01-30T10:14:46.094Z,19.46
2019-01-30T10:15:45.881Z,19.49
2019-01-30T10:16:45.972Z,19.45
2019-01-30T10:17:46.915Z,19.46
2019-01-30T10:18:46.198Z,19.47
2019-01-30T10:19:45.865Z,19.49
2019-01-30T10:20:45.619Z,19.45
2019-01-30T10:21:45.825Z,19.47
2019-01-30T10:22:46.775Z,19.46
2019-01-30T10:23:45.827Z,19.45
2019-01-30T10:24:46.177Z,19.47
2019-01-30T10:25:45.757Z,19.47
2019-01-30T10:26:45.886Z,19.47
2019-01-30T10:27:45.875Z,19.46
2019-01-30T10:28:45.582Z,19.46
2019-01-30T10:29:46.109Z,19.46
2019-01-30T10:30:45.938Z,19.46
2019-01-30T10:31:45.883Z,19.47
2019-01-30T10:32:46.040Z,19.43
2019-01-30T10:33:47.160Z,19.47
2019-01-30T10:34:45.773Z,19.47
2019-01-30T10:35:46.227Z,19.45
2019-01-30T10:36:46.454Z,19.46
2019-01-30T10:37:45.976Z,19.45
2019-01-30T10:38:45.917Z,19.46
2019-01-30T10:39:45.959Z,19.47
2019-01-30T10:40:47.709Z,19.46
2019-01-30T10:41:46.036Z,19.46
2019-01-30T10:42:45.861Z,19.47
2019-01-30T10:43:45.777Z,19.47
2019-01-30T10:44:46.291Z,19.49
2019-01-30T10:45:45.689Z,19.49
2019-01-30T10:46:45.866Z,19.52
2019-01-30T10:47:45.871Z,19.49
2019-01-30T10:48:46.846Z,19.53
2019-01-30T10:49:45.822Z,19.53
2019-01-30T10:50:46.273Z,19.57
2019-01-30T10:51:45.921Z,19.57
2019-01-30T10:52:46.030Z,19.56
2019-01-30T10:53:48.584Z,19.56
2019-01-30T10:54:45.847Z,19.58
2019-01-30T10:55:45.854Z,19.56
2019-01-30T10:56:46.184Z,19.57
2019-01-30T10:57:45.818Z,19.56
2019-01-30T10:58:46.370Z,19.53
2019-01-30T10:59:45.792Z,19.56
2019-01-30T11:00:46.037Z,19.54
2019-01-30T11:01:46.187Z,19.54
2019-01-30T11:02:46.827Z,19.57
2019-01-30T11:03:45.849Z,19.57
2019-01-30T11:04:45.852Z,19.54
2019-01-30T11:05:45.980Z,19.54
2019-01-30T11:06:45.863Z,19.54
2019-01-30T11:07:45.737Z,19.52
2019-01-30T11:08:45.780Z,19.54
2019-01-30T11:09:45.777Z,19.53
2019-01-30T11:10:45.964Z,19.53
2019-01-30T11:11:45.794Z,19.54
2019-01-30T11:12:46.074Z,19.54
2019-01-30T11:13:45.913Z,19.58
2019-01-30T11:14:45.817Z,19.57
2019-01-30T11:15:46.180Z,19.54
2019-01-30T11:16:45.624Z,19.54
2019-01-30T11:17:45.787Z,19.57
2019-01-30T11:18:46.347Z,19.56
2019-01-30T11:19:47.654Z,19.56
2019-01-30T11:20:46.984Z,19.57
2019-01-30T11:21:45.869Z,19.57
2019-01-30T11:22:45.806Z,19.58
2019-01-30T11:23:45.830Z,19.63
2019-01-30T11:24:46.806Z,19.64
2019-01-30T11:25:46.027Z,19.64
2019-01-30T11:26:46.013Z,19.67
2019-01-30T11:27:46.507Z,19.68
2019-01-30T11:28:45.825Z,19.68
2019-01-30T11:29:46.225Z,19.68
2019-01-30T11:30:45.781Z,19.64
2019-01-30T11:31:45.937Z,19.68
2019-01-30T11:32:45.947Z,19.65
2019-01-30T11:33:45.729Z,19.67
2019-01-30T11:34:46.588Z,19.65
2019-01-30T11:35:45.737Z,19.65
2019-01-30T11:36:46.150Z,19.67
2019-01-30T11:37:46.703Z,19.65
2019-01-30T11:38:46.290Z,19.64
2019-01-30T11:39:45.857Z,19.67
2019-01-30T11:40:46.112Z,19.64
2019-01-30T11:41:46.322Z,19.65
2019-01-30T11:42:46.118Z,19.61
2019-01-30T11:43:46.428Z,19.63
2019-01-30T11:44:46.229Z,19.65
2019-01-30T11:45:46.032Z,19.64
2019-01-30T11:46:46.360Z,19.63
2019-01-30T11:47:46.152Z,19.65
2019-01-30T11:48:56.983Z,19.64
2019-01-30T11:49:46.154Z,19.64
2019-01-30T11:50:45.748Z,19.64
2019-01-30T11:51:45.752Z,19.65
2019-01-30T11:52:45.779Z,19.65
2019-01-30T11:53:45.917Z,19.68
2019-01-30T11:54:45.984Z,19.67
2019-01-30T11:55:45.828Z,19.65
2019-01-30T11:56:45.796Z,19.67
2019-01-30T11:57:46.637Z,19.7
2019-01-30T11:58:45.814Z,19.67
2019-01-30T11:59:45.593Z,19.68
2019-01-30T12:00:46.341Z,19.68
2019-01-30T12:01:46.099Z,19.67
2019-01-30T12:02:48.883Z,19.68
2019-01-30T12:03:45.728Z,19.7
2019-01-30T12:04:45.937Z,19.68
2019-01-30T12:05:45.989Z,19.71
2019-01-30T12:06:46.043Z,19.71
2019-01-30T12:07:45.953Z,19.71
2019-01-30T12:08:45.730Z,19.73
2019-01-30T12:09:45.749Z,19.74
2019-01-30T12:10:45.971Z,19.73
2019-01-30T12:11:46.656Z,19.71
2019-01-30T12:12:46.131Z,19.74
2019-01-30T12:13:45.807Z,19.73
2019-01-30T12:14:45.965Z,19.74
2019-01-30T12:15:45.891Z,19.73
2019-01-30T12:16:46.274Z,19.74
2019-01-30T12:17:46.767Z,19.73
2019-01-30T12:18:46.009Z,19.74
2019-01-30T12:19:46.048Z,19.74
2019-01-30T12:20:45.979Z,19.73
2019-01-30T12:21:45.899Z,19.74
2019-01-30T12:22:45.952Z,19.75
2019-01-30T12:23:45.903Z,19.74
2019-01-30T12:24:46.004Z,19.75
2019-01-30T12:25:45.931Z,19.73
2019-01-30T12:26:45.859Z,19.7
2019-01-30T12:27:46.051Z,19.67
2019-01-30T12:28:45.698Z,19.67
2019-01-30T12:29:45.862Z,19.68
2019-01-30T12:30:46.271Z,19.67
2019-01-30T12:31:46.154Z,19.67
2019-01-30T12:32:45.892Z,19.68
2019-01-30T12:33:46.078Z,19.67
2019-01-30T12:34:45.798Z,19.67
2019-01-30T12:35:46.174Z,19.7
2019-01-30T12:36:45.607Z,19.68
2019-01-30T12:37:45.917Z,19.68
2019-01-30T12:38:45.890Z,19.67
2019-01-30T12:39:45.908Z,19.68
2019-01-30T12:40:45.888Z,19.7
2019-01-30T12:41:45.852Z,19.68
2019-01-30T12:42:45.953Z,19.73
2019-01-30T12:43:45.837Z,19.71
2019-01-30T12:44:45.777Z,19.73
2019-01-30T12:45:46.100Z,19.74
2019-01-30T12:46:45.829Z,19.75
2019-01-30T12:47:45.807Z,19.75
2019-01-30T12:48:45.761Z,19.74
2019-01-30T12:49:45.701Z,19.78
2019-01-30T12:50:45.915Z,19.77
2019-01-30T12:51:46.130Z,19.77
2019-01-30T12:52:45.849Z,19.78
2019-01-30T12:53:45.909Z,19.8
2019-01-30T12:54:46.070Z,19.81